Time;durP1;ratioP1;P1;durP2;ratioP2;P2;SDS_P1;SDS_P2;PMS_P1;PMS_P2;Temp;Humidity;BMP_temperature;BMP_pressure;BME280_temperature;BME280_humidity;BME280_pressure;Samples;Min_cycle;Max_cycle;Signal;HPM_P1;HPM_P2
2022/08/28 00:00:54;;;;;;;7.13;2.42;;;15.10;99.90;;;;;;5142294;27;20077;-68
2022/08/28 00:03:19;;;;;;;7.43;2.28;;;15.10;99.90;;;;;;5132383;27;20038;-69
2022/08/28 00:05:45;;;;;;;7.13;2.20;;;15.10;99.90;;;;;;5144457;27;20382;-68
2022/08/28 00:08:13;;;;;;;8.30;2.60;;;15.00;99.90;;;;;;5122176;28;20475;-69
2022/08/28 00:10:39;;;;;;;7.25;2.80;;;15.10;99.90;;;;;;5117844;28;20035;-68
2022/08/28 00:13:06;;;;;;;6.95;2.25;;;15.00;99.90;;;;;;5139208;27;20069;-69
2022/08/28 00:15:36;;;;;;;7.60;2.22;;;15.00;99.90;;;;;;5123099;27;20039;-68
2022/08/28 00:18:03;;;;;;;6.82;2.05;;;15.00;99.90;;;;;;5121595;27;20043;-68
2022/08/28 00:20:30;;;;;;;5.03;1.95;;;15.00;99.90;;;;;;5119699;27;20042;-67
2022/08/28 00:22:56;;;;;;;5.82;2.13;;;14.90;99.90;;;;;;5124763;27;20064;-69
2022/08/28 00:25:23;;;;;;;5.43;2.10;;;14.90;99.90;;;;;;5123200;27;20047;-68
2022/08/28 00:27:56;;;;;;;7.55;2.10;;;14.90;99.90;;;;;;5142916;27;20482;-68
2022/08/28 00:30:35;;;;;;;7.32;2.03;;;14.90;99.90;;;;;;5123630;27;20440;-67
2022/08/28 00:33:07;;;;;;;7.53;2.45;;;14.90;99.90;;;;;;5117266;28;20115;-68
2022/08/28 00:35:33;;;;;;;5.90;1.92;;;14.90;99.90;;;;;;5119147;27;20126;-68
2022/08/28 00:37:59;;;;;;;5.40;2.00;;;14.90;99.90;;;;;;5147448;27;20125;-68
2022/08/28 00:40:28;;;;;;;5.68;1.98;;;14.90;99.90;;;;;;5144935;27;20495;-69
2022/08/28 00:42:54;;;;;;;6.28;2.20;;;14.90;99.90;;;;;;5146830;27;20043;-69
2022/08/28 00:45:21;;;;;;;6.57;1.98;;;14.90;99.90;;;;;;5146461;27;20501;-69
2022/08/28 00:47:47;;;;;;;6.80;2.33;;;14.90;99.90;;;;;;5144354;27;20125;-69
2022/08/28 00:50:17;;;;;;;5.93;2.00;;;14.90;99.90;;;;;;5126759;27;20167;-69
2022/08/28 00:52:51;;;;;;;5.70;2.30;;;14.90;99.90;;;;;;5127494;27;20041;-69
2022/08/28 00:55:23;;;;;;;4.80;1.77;;;14.80;99.90;;;;;;5146439;27;20054;-68
2022/08/28 00:57:52;;;;;;;5.40;1.98;;;14.80;99.90;;;;;;5145713;27;20401;-68
2022/08/28 01:00:25;;;;;;;7.13;2.05;;;14.70;99.90;;;;;;5127193;27;20039;-68
2022/08/28 01:02:52;;;;;;;5.78;2.15;;;14.70;99.90;;;;;;5123835;27;20050;-69
2022/08/28 01:05:18;;;;;;;4.65;1.80;;;14.70;99.90;;;;;;5128238;27;20054;-68
2022/08/28 01:07:44;;;;;;;5.85;2.05;;;14.70;99.90;;;;;;5145568;27;20030;-69
2022/08/28 01:10:16;;;;;;;5.28;1.75;;;14.70;99.90;;;;;;5126061;27;20051;-69
2022/08/28 01:12:43;;;;;;;4.50;1.85;;;14.60;99.90;;;;;;5128093;27;20070;-69
2022/08/28 01:15:11;;;;;;;8.30;1.92;;;14.60;99.90;;;;;;5144430;27;20084;-69
2022/08/28 01:17:42;;;;;;;6.22;2.13;;;14.60;99.90;;;;;;5143238;27;20039;-68
2022/08/28 01:20:12;;;;;;;4.88;1.70;;;14.60;99.90;;;;;;5127829;27;20126;-68
2022/08/28 01:22:58;;;;;;;5.68;1.70;;;14.60;99.90;;;;;;5125903;27;20497;-68
2022/08/28 01:25:29;;;;;;;6.47;2.05;;;14.60;99.90;;;;;;5141659;27;20048;-68
2022/08/28 01:27:55;;;;;;;5.05;1.58;;;14.60;99.90;;;;;;5120837;27;20043;-69
2022/08/28 01:30:23;;;;;;;6.65;1.90;;;14.60;99.90;;;;;;5128693;27;20038;-69
2022/08/28 01:32:52;;;;;;;6.03;2.03;;;14.60;99.90;;;;;;5140345;27;20406;-69
2022/08/28 01:35:21;;;;;;;5.68;1.67;;;14.50;99.90;;;;;;5145839;27;20058;-68
2022/08/28 01:37:47;;;;;;;6.07;1.88;;;14.60;99.90;;;;;;5143960;27;21482;-69
2022/08/28 01:40:24;;;;;;;6.07;1.80;;;14.50;99.90;;;;;;5127220;27;20046;-69
2022/08/28 01:42:50;;;;;;;6.15;2.15;;;14.50;99.90;;;;;;5124163;27;20043;-68
2022/08/28 01:45:19;;;;;;;7.72;1.70;;;14.50;99.90;;;;;;5128192;27;21475;-69
2022/08/28 01:47:45;;;;;;;4.53;1.70;;;14.50;99.90;;;;;;5123132;27;20065;-69
2022/08/28 01:50:13;;;;;;;4.40;1.73;;;14.40;99.90;;;;;;5143782;27;20134;-66
2022/08/28 01:52:40;;;;;;;4.70;1.92;;;14.40;99.90;;;;;;5145566;27;20390;-67
2022/08/28 01:55:07;;;;;;;6.07;1.77;;;14.40;99.90;;;;;;5144905;27;20382;-67
2022/08/28 01:57:34;;;;;;;6.35;1.60;;;14.40;99.90;;;;;;5125474;27;20505;-67
2022/08/28 01:59:59;;;;;;;5.65;2.00;;;14.40;99.90;;;;;;5126987;27;20039;-67
2022/08/28 02:02:25;;;;;;;7.13;2.13;;;14.40;99.90;;;;;;5124653;27;20112;-67
2022/08/28 02:04:52;;;;;;;4.95;2.13;;;14.40;99.90;;;;;;5142333;27;20435;-67
2022/08/28 02:07:17;;;;;;;5.88;1.80;;;14.40;99.90;;;;;;5126554;27;20092;-69
2022/08/28 02:09:43;;;;;;;4.80;1.83;;;14.30;99.90;;;;;;5146160;27;20035;-67
2022/08/28 02:12:09;;;;;;;6.28;1.60;;;14.40;99.90;;;;;;5142984;27;20082;-67
2022/08/28 02:14:35;;;;;;;5.07;1.70;;;14.30;99.90;;;;;;5126431;27;20047;-68
2022/08/28 02:17:01;;;;;;;7.65;1.85;;;14.30;99.90;;;;;;5143075;27;20035;-67
2022/08/28 02:19:27;;;;;;;4.93;1.58;;;14.30;99.90;;;;;;5142884;27;20631;-68
2022/08/28 02:21:52;;;;;;;4.75;1.77;;;14.30;99.90;;;;;;5142978;27;20114;-68
2022/08/28 02:24:19;;;;;;;8.07;2.45;;;14.30;99.90;;;;;;5126962;27;20047;-68
2022/08/28 02:26:45;;;;;;;8.95;1.90;;;14.30;99.90;;;;;;5120269;27;20039;-68
2022/08/28 02:29:12;;;;;;;7.13;1.95;;;14.30;99.90;;;;;;5127024;27;20050;-67
2022/08/28 02:31:37;;;;;;;6.88;1.95;;;14.20;99.90;;;;;;5142976;27;20085;-67
2022/08/28 02:34:04;;;;;;;10.38;2.38;;;14.30;99.90;;;;;;5129766;27;20123;-67
2022/08/28 02:36:32;;;;;;;7.45;2.00;;;14.20;99.90;;;;;;5144554;27;20042;-68
2022/08/28 02:38:58;;;;;;;6.35;1.80;;;14.30;99.90;;;;;;5142632;27;20118;-67
2022/08/28 02:41:24;;;;;;;4.50;1.80;;;14.30;99.90;;;;;;5145452;27;20110;-68
2022/08/28 02:43:50;;;;;;;9.50;2.55;;;14.30;99.90;;;;;;5142631;27;20043;-68
2022/08/28 02:46:15;;;;;;;5.35;1.92;;;14.30;99.90;;;;;;5145570;27;20122;-67
2022/08/28 02:48:41;;;;;;;9.60;2.08;;;14.30;99.90;;;;;;5137436;27;20047;-67
2022/08/28 02:51:10;;;;;;;5.30;1.83;;;14.30;99.90;;;;;;5126876;27;20520;-67
2022/08/28 02:53:36;;;;;;;5.18;1.63;;;14.30;99.90;;;;;;5123549;27;20046;-67
2022/08/28 02:56:03;;;;;;;5.95;1.90;;;14.30;99.90;;;;;;5125803;27;20077;-68
2022/08/28 02:58:31;;;;;;;5.80;2.05;;;14.30;99.90;;;;;;5143255;27;20088;-67
2022/08/28 03:00:59;;;;;;;7.28;1.80;;;14.30;99.90;;;;;;5124554;27;20477;-68
2022/08/28 03:03:26;;;;;;;5.43;1.55;;;14.30;99.90;;;;;;5122281;27;20035;-67
2022/08/28 03:05:51;;;;;;;4.20;1.60;;;14.30;99.90;;;;;;5143639;27;20077;-68
2022/08/28 03:08:17;;;;;;;4.82;1.70;;;14.30;99.90;;;;;;5123101;27;20398;-67
2022/08/28 03:10:43;;;;;;;5.28;1.42;;;14.30;99.90;;;;;;5126820;27;20107;-67
2022/08/28 03:13:08;;;;;;;6.10;2.00;;;14.40;99.90;;;;;;5123129;27;20058;-67
2022/08/28 03:15:34;;;;;;;3.88;1.65;;;14.40;99.90;;;;;;5126119;27;20039;-67
2022/08/28 03:17:59;;;;;;;5.00;1.77;;;14.20;99.90;;;;;;5140472;27;20042;-68
2022/08/28 03:20:25;;;;;;;5.75;1.65;;;14.20;99.90;;;;;;5126341;27;20077;-68
2022/08/28 03:25:35;;;;;;;5.80;1.52;;;14.20;99.90;;;;;;5137159;27;20047;-67
2022/08/28 03:28:01;;;;;;;6.28;1.90;;;14.20;99.90;;;;;;5124823;27;20051;-68
2022/08/28 03:30:26;;;;;;;5.25;1.65;;;14.20;99.90;;;;;;5142772;27;20047;-68
2022/08/28 03:32:52;;;;;;;4.97;1.60;;;14.20;99.90;;;;;;5140942;27;20054;-68
2022/08/28 03:35:20;;;;;;;8.38;2.22;;;14.20;99.90;;;;;;5138299;27;20043;-68
2022/08/28 03:37:46;;;;;;;4.75;1.60;;;14.20;99.90;;;;;;5124748;27;20042;-68
2022/08/28 03:40:13;;;;;;;5.43;1.95;;;14.20;99.90;;;;;;5141676;27;20038;-67
2022/08/28 03:42:39;;;;;;;3.90;1.80;;;14.20;99.90;;;;;;5125387;27;20114;-67
2022/08/28 03:45:08;;;;;;;4.78;1.60;;;14.20;99.90;;;;;;5141241;27;20053;-67
2022/08/28 03:47:36;;;;;;;4.80;1.83;;;14.20;99.90;;;;;;5137216;27;20047;-67
2022/08/28 03:50:03;;;;;;;4.35;1.67;;;14.20;99.90;;;;;;5121175;27;20090;-67
2022/08/28 03:52:28;;;;;;;8.73;1.90;;;14.20;99.90;;;;;;5122929;27;20043;-67
2022/08/28 03:54:54;;;;;;;5.22;1.95;;;14.20;99.90;;;;;;5143785;27;20050;-68
2022/08/28 03:57:21;;;;;;;4.60;1.85;;;14.20;99.90;;;;;;5123552;27;20037;-67
2022/08/28 03:59:49;;;;;;;5.88;1.58;;;14.20;99.90;;;;;;5143174;27;20039;-67
2022/08/28 04:02:18;;;;;;;4.53;1.55;;;14.20;99.90;;;;;;5124771;27;20047;-68
2022/08/28 04:04:48;;;;;;;7.90;2.15;;;14.30;99.90;;;;;;5120890;27;20043;-68
2022/08/28 04:07:13;;;;;;;2.75;1.33;;;14.30;99.90;;;;;;5142785;27;20087;-67
2022/08/28 04:09:39;;;;;;;5.72;2.00;;;14.40;99.90;;;;;;5140828;27;20043;-67
2022/08/28 04:12:06;;;;;;;6.80;1.80;;;14.40;99.90;;;;;;5129440;27;20035;-68
2022/08/28 04:14:31;;;;;;;5.55;1.80;;;14.50;99.90;;;;;;5125620;27;20035;-68
2022/08/28 04:16:57;;;;;;;5.03;1.77;;;14.60;99.90;;;;;;5129735;27;20132;-69
2022/08/28 04:19:22;;;;;;;8.00;2.22;;;14.60;99.90;;;;;;5129915;27;20039;-68
2022/08/28 04:21:48;;;;;;;5.75;1.50;;;14.70;99.90;;;;;;5145765;27;20488;-68
2022/08/28 04:24:14;;;;;;;5.78;1.83;;;14.70;99.90;;;;;;5145881;27;20036;-67
2022/08/28 04:26:39;;;;;;;6.80;1.73;;;14.80;99.90;;;;;;5147165;27;20079;-68
2022/08/28 04:29:06;;;;;;;4.72;1.85;;;14.80;99.90;;;;;;5145393;27;20043;-68
2022/08/28 04:31:32;;;;;;;7.10;1.98;;;14.80;99.90;;;;;;5131093;27;20053;-68
2022/08/28 04:33:58;;;;;;;5.85;2.08;;;14.90;99.90;;;;;;5144502;27;20573;-69
2022/08/28 04:36:24;;;;;;;4.35;1.83;;;14.70;99.90;;;;;;5121972;27;20043;-69
2022/08/28 04:38:50;;;;;;;6.93;2.13;;;14.80;99.90;;;;;;5146973;27;20094;-69
2022/08/28 04:41:16;;;;;;;5.43;1.70;;;14.90;99.90;;;;;;5126718;27;20043;-69
2022/08/28 04:43:43;;;;;;;5.03;1.67;;;14.90;99.90;;;;;;5147007;27;20496;-70
2022/08/28 04:46:12;;;;;;;5.72;1.80;;;15.00;99.90;;;;;;5142444;27;20398;-69
2022/08/28 04:48:39;;;;;;;7.38;1.58;;;14.90;99.90;;;;;;5146493;27;20538;-69
2022/08/28 04:51:08;;;;;;;4.30;1.77;;;15.00;99.90;;;;;;5126712;27;20545;-67
2022/08/28 04:53:35;;;;;;;4.22;1.60;;;15.10;99.90;;;;;;5146192;27;20046;-68
2022/08/28 04:56:06;;;;;;;6.82;1.73;;;15.10;99.90;;;;;;5145100;27;20043;-67
2022/08/28 04:58:33;;;;;;;4.60;1.60;;;15.10;99.90;;;;;;5146637;27;20364;-68
2022/08/28 05:01:05;;;;;;;6.82;2.00;;;15.10;99.90;;;;;;5124926;27;20052;-68
2022/08/28 05:03:31;;;;;;;6.40;2.10;;;15.10;99.90;;;;;;5127146;27;20039;-68
2022/08/28 05:05:57;;;;;;;6.57;1.83;;;15.10;99.90;;;;;;5146165;27;20085;-68
2022/08/28 05:08:26;;;;;;;5.25;1.90;;;15.10;99.90;;;;;;5144002;27;20071;-69
2022/08/28 05:10:52;;;;;;;6.35;1.55;;;15.10;99.90;;;;;;5129227;27;20535;-69
2022/08/28 05:13:18;;;;;;;4.32;1.80;;;15.00;99.90;;;;;;5143290;27;20035;-68
2022/08/28 05:15:46;;;;;;;4.30;1.50;;;15.10;99.90;;;;;;5147202;27;20039;-68
2022/08/28 05:18:13;;;;;;;4.15;1.65;;;15.00;99.90;;;;;;5143642;27;20602;-67
2022/08/28 05:20:40;;;;;;;6.15;1.88;;;15.00;99.90;;;;;;5146267;27;20031;-68
2022/08/28 05:23:08;;;;;;;7.43;2.30;;;15.00;99.90;;;;;;5126309;27;20043;-68
2022/08/28 05:25:39;;;;;;;6.88;2.00;;;15.10;99.90;;;;;;5127095;27;20058;-68
2022/08/28 05:28:06;;;;;;;4.90;1.90;;;15.10;99.90;;;;;;5126080;27;20063;-68
2022/08/28 05:30:33;;;;;;;6.05;1.73;;;15.20;99.90;;;;;;5128522;27;20047;-69
2022/08/28 05:32:58;;;;;;;4.10;1.58;;;15.30;99.90;;;;;;5126280;27;20043;-68
2022/08/28 05:35:25;;;;;;;8.32;1.88;;;15.40;99.90;;;;;;5127017;27;20042;-69
2022/08/28 05:37:51;;;;;;;6.10;1.67;;;15.40;99.90;;;;;;5143933;27;20530;-68
2022/08/28 05:40:21;;;;;;;4.68;1.65;;;15.50;99.90;;;;;;5129133;27;20138;-68
2022/08/28 05:42:47;;;;;;;8.15;1.75;;;15.50;99.90;;;;;;5124499;27;20073;-69
2022/08/28 05:45:13;;;;;;;6.65;1.73;;;15.50;99.90;;;;;;5138674;27;20039;-68
2022/08/28 05:47:38;;;;;;;8.15;1.58;;;15.50;99.90;;;;;;5128610;27;20435;-68
2022/08/28 05:50:05;;;;;;;6.78;1.70;;;15.50;99.90;;;;;;5124627;27;20035;-68
2022/08/28 05:52:33;;;;;;;7.25;1.95;;;15.50;99.90;;;;;;5127474;27;20103;-68
2022/08/28 05:54:59;;;;;;;5.68;1.67;;;15.60;99.90;;;;;;5144369;27;20039;-69
2022/08/28 05:57:25;;;;;;;6.35;1.77;;;15.60;99.90;;;;;;5125889;27;20491;-68
2022/08/28 05:59:52;;;;;;;6.38;1.63;;;15.60;99.90;;;;;;5126758;27;20410;-69
2022/08/28 06:02:18;;;;;;;4.60;1.85;;;15.60;99.90;;;;;;5121391;27;20040;-68
2022/08/28 06:04:44;;;;;;;6.40;1.80;;;15.60;99.90;;;;;;5143724;27;20062;-68
2022/08/28 06:07:12;;;;;;;6.60;1.60;;;15.70;99.90;;;;;;5127634;27;20510;-69
2022/08/28 06:09:38;;;;;;;3.75;1.63;;;15.70;99.90;;;;;;5119605;27;20047;-68
2022/08/28 06:12:04;;;;;;;6.63;1.80;;;15.70;99.90;;;;;;5145367;27;20045;-68
2022/08/28 06:14:31;;;;;;;5.97;1.70;;;15.80;99.90;;;;;;5144274;27;20095;-68
2022/08/28 06:16:57;;;;;;;7.95;1.85;;;15.70;99.90;;;;;;5124189;27;20126;-69
2022/08/28 06:19:25;;;;;;;4.05;1.45;;;15.80;99.90;;;;;;5144330;27;20486;-68
2022/08/28 06:21:55;;;;;;;5.60;1.48;;;15.80;99.90;;;;;;5125632;27;20043;-69
2022/08/28 06:24:20;;;;;;;3.70;1.35;;;15.80;99.90;;;;;;5143876;27;20062;-68
2022/08/28 06:26:46;;;;;;;5.55;1.70;;;16.00;99.90;;;;;;5125138;27;20054;-67
2022/08/28 06:29:14;;;;;;;6.68;1.58;;;15.90;99.90;;;;;;5127028;27;20062;-67
2022/08/28 06:31:40;;;;;;;5.63;2.03;;;16.00;99.90;;;;;;5143262;27;20031;-68
2022/08/28 06:34:08;;;;;;;3.80;1.63;;;16.10;99.90;;;;;;5141450;27;20047;-68
2022/08/28 06:36:37;;;;;;;5.38;1.33;;;16.20;99.90;;;;;;5138306;27;20529;-68
2022/08/28 06:39:04;;;;;;;6.13;1.60;;;16.30;99.90;;;;;;5118663;27;20060;-69
2022/08/28 06:41:32;;;;;;;5.43;1.45;;;16.60;99.90;;;;;;5145701;27;20400;-68
2022/08/28 06:43:58;;;;;;;6.43;1.60;;;16.90;99.90;;;;;;5124912;27;20034;-69
2022/08/28 06:46:25;;;;;;;6.47;1.98;;;17.00;99.90;;;;;;5122106;27;20043;-69
2022/08/28 06:48:51;;;;;;;6.22;1.55;;;17.10;99.90;;;;;;5124115;27;20521;-68
2022/08/28 06:51:17;;;;;;;6.53;1.90;;;17.10;99.90;;;;;;5124450;27;20047;-69
2022/08/28 06:53:45;;;;;;;4.45;1.83;;;17.10;99.90;;;;;;5144448;27;20126;-69
2022/08/28 06:56:19;;;;;;;5.50;1.60;;;17.10;99.90;;;;;;5142257;27;20047;-69
2022/08/28 06:58:46;;;;;;;4.05;1.35;;;17.10;99.90;;;;;;5143068;27;20042;-69
2022/08/28 07:01:21;;;;;;;6.97;1.90;;;17.00;99.90;;;;;;5140726;27;20829;-69
2022/08/28 07:03:49;;;;;;;6.05;1.80;;;17.10;99.90;;;;;;5119164;27;20049;-69
2022/08/28 07:06:15;;;;;;;4.38;1.50;;;17.10;99.90;;;;;;5142268;27;20080;-68
2022/08/28 07:08:42;;;;;;;6.43;1.52;;;17.20;99.90;;;;;;5144168;27;20047;-69
2022/08/28 07:11:28;;;;;;;6.53;1.70;;;17.20;99.90;;;;;;5141593;27;20545;-68
2022/08/28 07:13:55;;;;;;;7.07;1.73;;;17.40;99.90;;;;;;5122282;27;20035;-69
2022/08/28 07:16:23;;;;;;;4.05;1.40;;;17.60;99.90;;;;;;5123598;27;20292;-69
2022/08/28 07:18:49;;;;;;;4.40;1.50;;;18.30;99.90;;;;;;5144182;27;20043;-69
2022/08/28 07:21:15;;;;;;;6.07;1.90;;;18.90;99.90;;;;;;5122654;27;20043;-69
2022/08/28 07:23:43;;;;;;;5.40;1.65;;;19.10;99.80;;;;;;5140646;27;20042;-69
2022/08/28 07:26:13;;;;;;;4.30;1.40;;;19.10;99.50;;;;;;5124231;27;20107;-69
2022/08/28 07:28:39;;;;;;;4.95;1.50;;;19.50;99.90;;;;;;5125433;27;20196;-70
2022/08/28 07:31:08;;;;;;;6.65;1.85;;;20.00;99.00;;;;;;5125185;27;20031;-69
2022/08/28 07:33:35;;;;;;;4.93;1.60;;;20.80;96.70;;;;;;5122224;27;20047;-70
2022/08/28 07:36:02;;;;;;;6.35;1.67;;;21.10;97.20;;;;;;5140272;27;20044;-69
2022/08/28 07:38:28;;;;;;;4.78;1.50;;;20.80;96.90;;;;;;5126083;27;20051;-69
2022/08/28 07:40:54;;;;;;;4.55;1.52;;;20.50;95.90;;;;;;5121684;27;20035;-69
2022/08/28 07:46:06;;;;;;;4.75;1.70;;;21.10;95.60;;;;;;5120866;27;20467;-70
2022/08/28 07:48:34;;;;;;;5.13;1.48;;;22.20;94.90;;;;;;5143010;27;20061;-70
2022/08/28 07:51:01;;;;;;;5.80;1.52;;;22.60;93.80;;;;;;5140850;27;20474;-70
2022/08/28 07:53:30;;;;;;;4.80;1.40;;;23.00;93.20;;;;;;5126007;27;20038;-70
2022/08/28 07:55:57;;;;;;;3.15;1.30;;;23.50;92.10;;;;;;5121680;27;20038;-70
2022/08/28 07:58:24;;;;;;;3.90;1.27;;;24.00;91.80;;;;;;5124913;27;20067;-70
2022/08/28 08:00:51;;;;;;;3.03;1.38;;;24.20;90.50;;;;;;5118070;27;20099;-71
2022/08/28 08:03:18;;;;;;;3.78;1.63;;;25.00;90.40;;;;;;5143777;27;20039;-71
2022/08/28 08:05:58;;;;;;;5.63;1.85;;;25.50;89.50;;;;;;5141749;27;20043;-71
2022/08/28 08:08:24;;;;;;;3.47;1.35;;;26.20;88.40;;;;;;5137499;27;20034;-71
2022/08/28 08:10:59;;;;;;;3.47;1.45;;;26.30;87.60;;;;;;5124979;27;20439;-72
2022/08/28 08:13:28;;;;;;;5.32;1.52;;;25.70;86.70;;;;;;5140619;27;20070;-71
2022/08/28 08:16:05;;;;;;;3.70;1.30;;;25.90;87.80;;;;;;5139649;27;20041;-72
2022/08/28 08:18:32;;;;;;;4.13;1.40;;;25.00;88.50;;;;;;5123392;27;20477;-70
2022/08/28 08:20:58;;;;;;;4.82;1.38;;;25.20;90.20;;;;;;5143230;27;20051;-72
2022/08/28 08:23:24;;;;;;;7.65;1.60;;;25.90;88.50;;;;;;5140570;27;20031;-70
2022/08/28 08:25:55;;;;;;;2.83;1.30;;;26.50;85.00;;;;;;5143698;27;20050;-69
2022/08/28 08:28:21;;;;;;;4.35;1.23;;;27.00;83.60;;;;;;5140371;27;20047;-69
2022/08/28 08:30:47;;;;;;;4.45;1.42;;;27.40;85.30;;;;;;5128429;27;20352;-75
2022/08/28 08:33:13;;;;;;;3.72;1.40;;;27.70;84.00;;;;;;5119528;27;20035;-73
2022/08/28 08:35:38;;;;;;;4.30;1.40;;;28.00;84.00;;;;;;5139960;27;20046;-71
2022/08/28 08:38:05;;;;;;;4.18;1.33;;;28.50;83.60;;;;;;5141317;27;20036;-74
2022/08/28 08:40:32;;;;;;;4.80;1.35;;;28.90;83.60;;;;;;5122414;27;20066;-73
2022/08/28 08:42:58;;;;;;;3.35;1.33;;;28.60;82.10;;;;;;5140478;27;20050;-73
2022/08/28 08:45:25;;;;;;;4.10;1.38;;;28.60;82.20;;;;;;5116151;28;20525;-74
2022/08/28 08:47:54;;;;;;;5.75;1.45;;;28.40;82.70;;;;;;5140326;27;20054;-74
2022/08/28 08:50:33;;;;;;;5.63;1.50;;;27.80;81.90;;;;;;5143508;27;20043;-73
2022/08/28 08:53:32;;;;;;;4.10;1.27;;;26.40;82.90;;;;;;5116378;28;20496;-74
2022/08/28 08:55:58;;;;;;;3.80;1.30;;;25.60;86.40;;;;;;5121995;27;20127;-75
2022/08/28 08:58:45;;;;;;;4.22;1.50;;;25.60;86.60;;;;;;5145561;27;20066;-73
2022/08/28 09:01:43;;;;;;;3.25;1.25;;;25.90;86.00;;;;;;5112441;27;20051;-71
2022/08/28 09:04:38;;;;;;;3.70;1.40;;;25.70;84.10;;;;;;5112177;27;20171;-75
2022/08/28 09:07:50;;;;;;;6.00;1.70;;;26.00;84.80;;;;;;5119864;27;20050;-74
2022/08/28 09:10:16;;;;;;;3.42;1.25;;;26.50;83.30;;;;;;5124602;27;20050;-73
2022/08/28 09:13:01;;;;;;;4.60;1.48;;;27.30;84.20;;;;;;5120826;27;20030;-71
2022/08/28 09:15:33;;;;;;;5.50;1.65;;;27.70;83.00;;;;;;5123643;27;20050;-73
2022/08/28 09:18:17;;;;;;;7.43;1.58;;;28.20;82.50;;;;;;5140918;27;20087;-73
2022/08/28 09:20:42;;;;;;;4.70;1.52;;;27.90;80.70;;;;;;5142956;27;20058;-71
2022/08/28 09:23:08;;;;;;;4.00;1.90;;;27.50;83.20;;;;;;5121145;27;20082;-72
2022/08/28 09:25:43;;;;;;;4.10;1.80;;;26.80;82.40;;;;;;5142981;27;20031;-72
2022/08/28 09:28:10;;;;;;;3.43;1.23;;;26.10;82.50;;;;;;5119748;27;20561;-74
2022/08/28 09:30:36;;;;;;;3.78;1.48;;;25.30;84.20;;;;;;5139738;27;20038;-72
2022/08/28 09:33:02;;;;;;;3.92;1.48;;;24.30;86.30;;;;;;5116242;27;20493;-71
2022/08/28 09:35:31;;;;;;;3.78;1.55;;;24.10;87.10;;;;;;5125153;27;20095;-72
2022/08/28 09:38:20;;;;;;;5.45;1.60;;;24.10;87.80;;;;;;5124857;27;20039;-71
2022/08/28 09:43:33;;;;;;;4.55;1.55;;;23.30;90.00;;;;;;5124145;27;20046;-71
2022/08/28 09:46:17;;;;;;;4.88;1.20;;;23.00;90.30;;;;;;5123117;27;20090;-72
2022/08/28 09:48:45;;;;;;;5.95;1.70;;;22.80;90.50;;;;;;5118788;27;20047;-72
2022/08/28 09:51:20;;;;;;;5.75;1.67;;;22.50;91.20;;;;;;5115729;27;20089;-72
2022/08/28 09:53:55;;;;;;;4.90;1.48;;;22.10;92.00;;;;;;5122901;27;20039;-72
2022/08/28 09:56:34;;;;;;;5.10;1.50;;;21.90;92.20;;;;;;5117244;27;20069;-72
2022/08/28 09:59:06;;;;;;;6.20;1.80;;;21.70;92.90;;;;;;5115570;27;20034;-71
2022/08/28 10:01:59;;;;;;;3.70;1.50;;;21.60;92.20;;;;;;5136630;27;20050;-71
2022/08/28 10:04:44;;;;;;;3.80;1.40;;;21.50;92.00;;;;;;5136828;27;20045;-71
2022/08/28 10:07:28;;;;;;;2.90;1.40;;;21.50;91.90;;;;;;5129461;27;20617;-72
2022/08/28 10:10:16;;;;;;;3.60;1.45;;;21.60;91.90;;;;;;5137691;27;20055;-74
2022/08/28 10:12:58;;;;;;;4.28;1.65;;;21.70;91.90;;;;;;5138422;27;20043;-74
2022/08/28 10:15:35;;;;;;;4.18;1.52;;;22.40;92.30;;;;;;5112632;27;20031;-74
2022/08/28 10:18:33;;;;;;;5.00;1.55;;;23.90;91.00;;;;;;5119299;27;20129;-72
2022/08/28 10:21:13;;;;;;;4.88;1.50;;;24.00;89.10;;;;;;5119658;27;20470;-72
2022/08/28 10:24:08;;;;;;;4.72;1.75;;;23.40;89.60;;;;;;5142006;27;20058;-71
2022/08/28 10:26:43;;;;;;;5.55;1.70;;;22.70;90.20;;;;;;5140063;27;20088;-74
2022/08/28 10:29:34;;;;;;;7.63;1.88;;;22.70;90.60;;;;;;5143240;27;20928;-71
2022/08/28 10:32:24;;;;;;;3.78;1.67;;;23.30;90.90;;;;;;5139699;27;20071;-70
2022/08/28 10:35:41;;;;;;;6.13;1.90;;;24.80;89.90;;;;;;5126638;27;20584;-71
2022/08/28 10:38:16;;;;;;;3.75;1.42;;;25.50;84.80;;;;;;5081623;27;20054;-70
2022/08/28 10:40:50;;;;;;;;;;;25.70;85.20;;;;;;5125797;27;20095;-75
2022/08/28 10:43:32;;;;;;;3.45;1.35;;;26.30;84.30;;;;;;5126872;27;19919;-74
2022/08/28 10:46:02;;;;;;;3.72;1.35;;;27.00;84.50;;;;;;5120459;27;20114;-69
2022/08/28 10:48:37;;;;;;;3.88;1.40;;;26.10;82.30;;;;;;5124145;27;20050;-72
2022/08/28 10:51:27;;;;;;;3.00;1.27;;;26.10;84.00;;;;;;5124071;27;20050;-70
2022/08/28 10:54:01;;;;;;;4.50;1.40;;;26.30;84.60;;;;;;5137964;27;20479;-70
2022/08/28 10:56:39;;;;;;;4.15;1.50;;;26.80;83.70;;;;;;5139039;27;20506;-69
2022/08/28 10:59:05;;;;;;;3.72;1.50;;;26.60;82.40;;;;;;5143210;27;20038;-70
2022/08/28 11:01:37;;;;;;;4.60;1.98;;;26.70;83.10;;;;;;5124613;27;20054;-69
2022/08/28 11:04:08;;;;;;;3.53;1.42;;;27.20;82.40;;;;;;5140784;27;20027;-71
2022/08/28 11:06:43;;;;;;;4.10;1.45;;;27.20;79.80;;;;;;5124648;27;20046;-75
2022/08/28 11:09:24;;;;;;;4.50;1.50;;;26.90;79.70;;;;;;5125743;27;20436;-71
2022/08/28 11:11:55;;;;;;;4.07;1.40;;;27.00;82.30;;;;;;5118766;27;20051;-70
2022/08/28 11:14:42;;;;;;;2.80;1.25;;;27.30;82.20;;;;;;5127079;27;20058;-69
2022/08/28 11:17:26;;;;;;;3.65;1.42;;;27.00;82.10;;;;;;5123955;27;20454;-70
2022/08/28 11:20:24;;;;;;;5.07;1.48;;;26.40;82.70;;;;;;5136975;27;20047;-70
2022/08/28 11:23:07;;;;;;;3.75;1.50;;;26.20;82.20;;;;;;5119311;27;20043;-73
2022/08/28 11:25:57;;;;;;;3.60;1.48;;;26.20;83.50;;;;;;5141359;27;20052;-71
2022/08/28 11:28:23;;;;;;;5.53;1.63;;;25.90;83.60;;;;;;5120484;27;20051;-69
2022/08/28 11:30:57;;;;;;;4.43;1.58;;;26.20;83.60;;;;;;5126572;27;20117;-71
2022/08/28 11:33:42;;;;;;;3.08;1.33;;;26.40;82.80;;;;;;5119047;27;20502;-68
2022/08/28 11:36:18;;;;;;;3.22;1.20;;;25.90;82.50;;;;;;5143720;27;20132;-67
2022/08/28 11:38:44;;;;;;;3.33;1.30;;;26.30;83.00;;;;;;5131407;27;20061;-71
2022/08/28 11:41:10;;;;;;;3.10;1.63;;;26.60;81.50;;;;;;5124744;27;20510;-68
2022/08/28 11:43:37;;;;;;;15.27;2.45;;;26.90;81.30;;;;;;5142094;27;20122;-69
2022/08/28 11:46:02;;;;;;;4.63;1.30;;;27.40;82.60;;;;;;5124919;27;20398;-70
2022/08/28 11:48:38;;;;;;;5.00;1.73;;;27.20;81.50;;;;;;5141555;27;20109;-69
2022/08/28 11:51:26;;;;;;;4.10;1.42;;;27.30;82.10;;;;;;5138356;27;20127;-71
2022/08/28 11:54:18;;;;;;;4.78;1.40;;;27.80;80.80;;;;;;5138114;27;20039;-70
2022/08/28 11:57:04;;;;;;;3.60;1.48;;;27.30;81.10;;;;;;5122970;27;20050;-68
2022/08/28 12:00:01;;;;;;;3.78;1.40;;;26.70;81.50;;;;;;5123223;27;20043;-70
2022/08/28 12:02:48;;;;;;;3.63;1.35;;;26.90;83.10;;;;;;5134422;27;20047;-70
2022/08/28 12:05:13;;;;;;;4.60;1.25;;;27.10;82.40;;;;;;5135707;27;20103;-71
2022/08/28 12:07:48;;;;;;;3.75;1.65;;;27.90;82.10;;;;;;5126350;27;20042;-72
2022/08/28 12:10:23;;;;;;;5.13;1.30;;;28.40;81.10;;;;;;5137146;27;20478;-72
2022/08/28 12:12:48;;;;;;;4.60;1.40;;;28.40;79.40;;;;;;5143862;27;20553;-71
2022/08/28 12:15:26;;;;;;;5.78;1.52;;;27.80;80.10;;;;;;5140144;27;20043;-71
2022/08/28 12:18:10;;;;;;;3.40;1.30;;;26.80;80.20;;;;;;5142699;27;20039;-70
2022/08/28 12:20:59;;;;;;;3.80;1.63;;;26.70;81.80;;;;;;5128058;27;20113;-70
2022/08/28 12:23:41;;;;;;;3.70;1.38;;;26.70;82.70;;;;;;5122490;27;20054;-70
2022/08/28 12:26:28;;;;;;;4.03;1.35;;;25.80;82.80;;;;;;5117524;28;20038;-70
2022/08/28 12:29:02;;;;;;;4.38;1.33;;;25.40;84.30;;;;;;5137168;27;20044;-70
2022/08/28 12:34:46;;;;;;;4.38;1.35;;;24.90;86.50;;;;;;5122583;27;20051;-70
2022/08/28 12:37:24;;;;;;;2.58;1.00;;;24.70;86.90;;;;;;5084632;27;20055;-68
2022/08/28 12:39:50;;;;;;;4.88;1.80;;;24.70;87.10;;;;;;5128102;27;20068;-70
2022/08/28 12:42:19;;;;;;;3.58;1.58;;;24.50;87.70;;;;;;5144692;27;20451;-73
2022/08/28 12:44:45;;;;;;;4.07;1.52;;;24.20;88.90;;;;;;5125702;27;20042;-69
2022/08/28 12:47:15;;;;;;;3.33;1.10;;;24.20;86.90;;;;;;5144801;27;20039;-70
2022/08/28 12:49:41;;;;;;;2.60;1.10;;;23.90;88.40;;;;;;5141253;27;20087;-70
2022/08/28 12:52:06;;;;;;;4.72;1.30;;;23.80;88.80;;;;;;5124525;27;20036;-70
2022/08/28 12:54:34;;;;;;;4.57;1.48;;;24.00;90.20;;;;;;5144892;27;20034;-70
2022/08/28 12:57:04;;;;;;;3.75;1.50;;;24.50;89.90;;;;;;5143560;27;20039;-70
2022/08/28 12:59:35;;;;;;;7.10;2.00;;;24.70;89.00;;;;;;5139442;27;20035;-70
2022/08/28 13:02:06;;;;;;;3.55;1.73;;;24.70;88.80;;;;;;5119671;27;20087;-70
2022/08/28 13:04:39;;;;;;;4.35;1.98;;;24.50;89.10;;;;;;5133775;27;20114;-70
2022/08/28 13:07:14;;;;;;;4.03;1.58;;;24.40;89.00;;;;;;5116326;27;20062;-70
2022/08/28 13:09:47;;;;;;;2.88;1.30;;;24.60;89.20;;;;;;5140048;27;20050;-70
2022/08/28 13:12:25;;;;;;;5.30;1.58;;;24.60;88.20;;;;;;5125983;27;20043;-70
2022/08/28 13:14:51;;;;;;;3.17;1.50;;;24.80;88.00;;;;;;5144462;27;20047;-70
2022/08/28 13:17:42;;;;;;;4.03;1.30;;;24.80;87.00;;;;;;5127674;27;20043;-69